Hikarimaru No.17 — JD2956 — position and weather

sailwx.info

Track history (hours):
 
Tides and Currents Weather Stations Pressure Air Temp Water Temp Dewpoint Dewpoint Depression Visibility Wind Speed Wind Dir Waves Ship Positions

Hikarimaru No.17

Last reported at 2016-Nov-12 09:33 UTC. Time now 2016-Dec-09 07:51 UTC.
Position N 34°34' E 135°10'.
Warning: this ship's position is 26 days out of date.

Length 105 m; draft 6.5 m.

Type: Tanker. MMSI: 431000984.

Date/timePositionNaut miles runAvg speedWind from/ knotsBaromVisibWave heightAir tempDewpointWater temp
2016-Nov-12 09:33N 34°34' E 135°10'9 0.9
2016-Nov-11 23:33N 34°32' E 135°21'27 2.1
2016-Nov-11 10:29N 34°07' E 135°07'23910.4
2016-Nov-10 11:33N 35°15' E 139°46'1111.1
2016-Nov-10 10:33N 35°26' E 139°46'8 0.6
2016-Nov-09 22:33N 35°29' E 139°55'0 0.0
2016-Nov-09 20:36N 35°29' E 139°55'0 0.0
2016-Nov-09 19:52N 35°29' E 139°55'0 0.0
2016-Nov-09 19:06N 35°29' E 139°55'0 0.0
2016-Nov-09 18:33N 35°29' E 139°55'0 0.0
2016-Nov-09 17:33N 35°29' E 139°55'0 0.0
2016-Nov-09 15:33N 35°29' E 139°55'0 0.0
2016-Nov-09 13:33N 35°29' E 139°55'0 0.0
2016-Nov-09 08:33N 35°29' E 139°55'0 0.0
2016-Nov-09 07:33N 35°29' E 139°55'0 0.0
2016-Nov-09 05:33N 35°29' E 139°55'0 0.0
2016-Nov-09 04:33N 35°29' E 139°55'0 0.0
2016-Nov-09 02:33N 35°29' E 139°55'6 2.1
2016-Nov-08 23:33N 35°30' E 139°48'3 3.0
2016-Nov-08 22:32N 35°30' E 139°44'0 0.0
2016-Nov-08 21:32N 35°30' E 139°44'0 0.0
2016-Nov-08 20:32N 35°30' E 139°44'0 0.0
2016-Nov-08 19:32N 35°30' E 139°44'0 0.0
2016-Nov-08 18:32N 35°30' E 139°44'0 0.0
2016-Nov-08 17:32N 35°30' E 139°44'0 0.0
2016-Nov-08 15:32N 35°30' E 139°44'0 0.0
2016-Nov-08 09:32N 35°30' E 139°44'0 0.0
2016-Nov-08 06:32N 35°30' E 139°44'0 0.0
2016-Nov-08 04:32N 35°30' E 139°44'0 0.0
2016-Nov-08 00:29N 35°30' E 139°44'1 1.4
2016-Nov-07 23:33N 35°29' E 139°42'6 1.5
2016-Nov-07 19:32N 35°23' E 139°45'0 0.0
2016-Nov-07 17:32N 35°23' E 139°45'0 0.0
2016-Nov-07 16:32N 35°23' E 139°45'0 0.0
2016-Nov-07 15:32N 35°23' E 139°45'0 0.0
2016-Nov-07 14:32N 35°23' E 139°45'0 0.0
2016-Nov-07 13:32N 35°23' E 139°45'0 0.0
2016-Nov-07 09:32N 35°23' E 139°45'7 6.9
2016-Nov-07 08:33N 35°28' E 139°50'4 0.4
2016-Nov-06 22:30N 35°29' E 139°56'0 0.0
2016-Nov-06 20:30N 35°29' E 139°56'0 0.0
2016-Nov-06 19:33N 35°29' E 139°56'0 0.0
2016-Nov-06 17:33N 35°29' E 139°56'0 0.0
2016-Nov-06 15:30N 35°29' E 139°56'0 0.0
2016-Nov-06 13:27N 35°29' E 139°56'0 0.0
2016-Nov-06 12:27N 35°29' E 139°56'0 0.1
2016-Nov-06 11:33N 35°29' E 139°55'0 0.1
2016-Nov-06 10:33N 35°29' E 139°56'0 0.0
2016-Nov-06 08:33N 35°29' E 139°56'0 0.0
2016-Nov-06 07:30N 35°29' E 139°56'9 1.2
2016-Nov-05 23:32N 35°30' E 139°44'0 0.0
2016-Nov-05 21:32N 35°30' E 139°44'0 0.0
2016-Nov-05 20:41N 35°30' E 139°44'0 0.0
2016-Nov-05 20:32N 35°30' E 139°44'0 0.0
2016-Nov-05 16:32N 35°30' E 139°44'0 0.0
2016-Nov-05 12:32N 35°30' E 139°44'0 0.0
2016-Nov-05 11:32N 35°30' E 139°44'0 0.0
2016-Nov-05 10:29N 35°30' E 139°44'0 0.0
2016-Nov-05 09:32N 35°30' E 139°44'0 0.0
2016-Nov-05 08:29N 35°30' E 139°44'0 0.0
2016-Nov-05 07:32N 35°30' E 139°44'0 0.0
2016-Nov-05 04:32N 35°30' E 139°44'0 0.0
2016-Nov-05 02:32N 35°30' E 139°44'0 0.0
2016-Nov-05 01:32N 35°30' E 139°44'5 2.5
2016-Nov-04 23:33N 35°25' E 139°45'1 1.2
2016-Nov-04 22:33N 35°24' E 139°45'0 0.0
2016-Nov-04 21:33N 35°24' E 139°45'0 0.0
2016-Nov-04 20:33N 35°24' E 139°45'0 0.0
2016-Nov-04 18:33N 35°24' E 139°45'0 0.0
2016-Nov-04 16:33N 35°24' E 139°45'0 0.0
2016-Nov-04 14:33N 35°24' E 139°45'4 2.2
2016-Nov-04 12:34N 35°27' E 139°49'  
Track history (hours):
 
Tides and Currents Weather Stations Pressure Air Temp Water Temp Dewpoint Dewpoint Depression Visibility Wind Speed Wind Dir Waves Ship Positions

Hikarimaru No.17

Last reported at 2016-Nov-12 09:33 UTC. Time now 2016-Dec-09 07:51 UTC.
Position N 34°34' E 135°10'.
Warning: this ship's position is 26 days out of date.

Length 105 m; draft 6.5 m.

Type: Tanker. MMSI: 431000984.

Date/timePositionNaut miles runAvg speedWind from/ knotsBaromVisibWave heightAir tempDewpointWater temp
2016-Nov-12 09:33N 34°34' E 135°10'9 0.9
2016-Nov-11 23:33N 34°32' E 135°21'27 2.1
2016-Nov-11 10:29N 34°07' E 135°07'23910.4
2016-Nov-10 11:33N 35°15' E 139°46'1111.1
2016-Nov-10 10:33N 35°26' E 139°46'8 0.6
2016-Nov-09 22:33N 35°29' E 139°55'0 0.0
2016-Nov-09 20:36N 35°29' E 139°55'0 0.0
2016-Nov-09 19:52N 35°29' E 139°55'0 0.0
2016-Nov-09 19:06N 35°29' E 139°55'0 0.0
2016-Nov-09 18:33N 35°29' E 139°55'0 0.0
2016-Nov-09 17:33N 35°29' E 139°55'0 0.0
2016-Nov-09 15:33N 35°29' E 139°55'0 0.0
2016-Nov-09 13:33N 35°29' E 139°55'0 0.0
2016-Nov-09 08:33N 35°29' E 139°55'0 0.0
2016-Nov-09 07:33N 35°29' E 139°55'0 0.0
2016-Nov-09 05:33N 35°29' E 139°55'0 0.0
2016-Nov-09 04:33N 35°29' E 139°55'0 0.0
2016-Nov-09 02:33N 35°29' E 139°55'6 2.1
2016-Nov-08 23:33N 35°30' E 139°48'3 3.0
2016-Nov-08 22:32N 35°30' E 139°44'0 0.0
2016-Nov-08 21:32N 35°30' E 139°44'0 0.0
2016-Nov-08 20:32N 35°30' E 139°44'0 0.0
2016-Nov-08 19:32N 35°30' E 139°44'0 0.0
2016-Nov-08 18:32N 35°30' E 139°44'0 0.0
2016-Nov-08 17:32N 35°30' E 139°44'0 0.0
2016-Nov-08 15:32N 35°30' E 139°44'0 0.0
2016-Nov-08 09:32N 35°30' E 139°44'0 0.0
2016-Nov-08 06:32N 35°30' E 139°44'0 0.0
2016-Nov-08 04:32N 35°30' E 139°44'0 0.0
2016-Nov-08 00:29N 35°30' E 139°44'1 1.4
2016-Nov-07 23:33N 35°29' E 139°42'6 1.5
2016-Nov-07 19:32N 35°23' E 139°45'0 0.0
2016-Nov-07 17:32N 35°23' E 139°45'0 0.0
2016-Nov-07 16:32N 35°23' E 139°45'0 0.0
2016-Nov-07 15:32N 35°23' E 139°45'0 0.0
2016-Nov-07 14:32N 35°23' E 139°45'0 0.0
2016-Nov-07 13:32N 35°23' E 139°45'0 0.0
2016-Nov-07 09:32N 35°23' E 139°45'7 6.9
2016-Nov-07 08:33N 35°28' E 139°50'4 0.4
2016-Nov-06 22:30N 35°29' E 139°56'0 0.0
2016-Nov-06 20:30N 35°29' E 139°56'0 0.0
2016-Nov-06 19:33N 35°29' E 139°56'0 0.0
2016-Nov-06 17:33N 35°29' E 139°56'0 0.0
2016-Nov-06 15:30N 35°29' E 139°56'0 0.0
2016-Nov-06 13:27N 35°29' E 139°56'0 0.0
2016-Nov-06 12:27N 35°29' E 139°56'0 0.1
2016-Nov-06 11:33N 35°29' E 139°55'0 0.1
2016-Nov-06 10:33N 35°29' E 139°56'0 0.0
2016-Nov-06 08:33N 35°29' E 139°56'0 0.0
2016-Nov-06 07:30N 35°29' E 139°56'9 1.2
2016-Nov-05 23:32N 35°30' E 139°44'0 0.0
2016-Nov-05 21:32N 35°30' E 139°44'0 0.0
2016-Nov-05 20:41N 35°30' E 139°44'0 0.0
2016-Nov-05 20:32N 35°30' E 139°44'0 0.0
2016-Nov-05 16:32N 35°30' E 139°44'0 0.0
2016-Nov-05 12:32N 35°30' E 139°44'0 0.0
2016-Nov-05 11:32N 35°30' E 139°44'0 0.0
2016-Nov-05 10:29N 35°30' E 139°44'0 0.0
2016-Nov-05 09:32N 35°30' E 139°44'0 0.0
2016-Nov-05 08:29N 35°30' E 139°44'0 0.0
2016-Nov-05 07:32N 35°30' E 139°44'0 0.0
2016-Nov-05 04:32N 35°30' E 139°44'0 0.0
2016-Nov-05 02:32N 35°30' E 139°44'0 0.0
2016-Nov-05 01:32N 35°30' E 139°44'5 2.5
2016-Nov-04 23:33N 35°25' E 139°45'1 1.2
2016-Nov-04 22:33N 35°24' E 139°45'0 0.0
2016-Nov-04 21:33N 35°24' E 139°45'0 0.0
2016-Nov-04 20:33N 35°24' E 139°45'0 0.0
2016-Nov-04 18:33N 35°24' E 139°45'0 0.0
2016-Nov-04 16:33N 35°24' E 139°45'0 0.0
2016-Nov-04 14:33N 35°24' E 139°45'4 2.2
2016-Nov-04 12:34N 35°27' E 139°49'  

Dump ship's entire track history